Time;durP1;ratioP1;P1;durP2;ratioP2;P2;SDS_P1;SDS_P2;PMS_P1;PMS_P2;Temp;Humidity;BMP_temperature;BMP_pressure;BME280_temperature;BME280_humidity;BME280_pressure;Samples;Min_cycle;Max_cycle;Signal;HPM_P1;HPM_P2
2023/08/31 00:02:16;;;;;;;10.00;8.68;;;;;;;15.05;100.00;98788.84;4846657;29;20034;-85
2023/08/31 00:04:41;;;;;;;10.80;8.25;;;;;;;15.08;100.00;98793.84;4846904;29;20073;-85
2023/08/31 00:07:07;;;;;;;9.93;8.93;;;;;;;14.96;100.00;98766.00;4845252;29;20029;-85
2023/08/31 00:09:32;;;;;;;12.68;10.23;;;;;;;15.02;100.00;98780.38;4827534;29;20064;-85
2023/08/31 00:11:58;;;;;;;9.80;8.73;;;;;;;14.94;100.00;98755.59;4843942;29;20026;-85
2023/08/31 00:14:24;;;;;;;12.57;9.55;;;;;;;14.98;100.00;98766.69;4844115;29;20061;-85
2023/08/31 00:16:50;;;;;;;12.10;9.48;;;;;;;15.04;100.00;98779.31;4843879;29;20029;-85
2023/08/31 00:19:15;;;;;;;10.57;9.38;;;;;;;14.94;100.00;98760.00;4842364;29;20030;-85
2023/08/31 00:21:41;;;;;;;11.05;9.20;;;;;;;14.93;100.00;98755.72;4843583;29;20026;-85
2023/08/31 00:24:07;;;;;;;11.70;9.77;;;;;;;14.91;100.00;98763.69;4843682;29;20030;-85
2023/08/31 00:26:33;;;;;;;10.80;9.70;;;;;;;14.94;100.00;98783.63;4842617;29;20069;-85
2023/08/31 00:28:58;;;;;;;10.65;9.32;;;;;;;14.81;100.00;98764.56;4843567;29;20058;-85
2023/08/31 00:31:24;;;;;;;14.73;10.63;;;;;;;14.66;100.00;98754.31;4843666;29;20418;-85
2023/08/31 00:33:50;;;;;;;11.48;9.95;;;;;;;14.83;100.00;98783.59;4843520;29;20022;-85
2023/08/31 00:36:15;;;;;;;13.15;9.68;;;;;;;14.90;100.00;98792.66;4843143;29;20081;-85
2023/08/31 00:38:41;;;;;;;11.07;9.20;;;;;;;14.78;100.00;98783.13;4842369;29;20400;-85
2023/08/31 00:41:07;;;;;;;10.57;8.40;;;;;;;14.54;100.00;98757.03;4842103;29;20050;-85
2023/08/31 00:43:33;;;;;;;12.00;10.27;;;;;;;14.47;100.00;98756.66;4842178;29;20124;-85
2023/08/31 00:45:59;;;;;;;10.25;8.88;;;;;;;14.59;100.00;98770.63;4843067;29;20545;-85
2023/08/31 00:48:24;;;;;;;12.35;10.88;;;;;;;14.64;100.00;98776.34;4843180;29;20114;-85
2023/08/31 00:50:51;;;;;;;11.10;9.95;;;;;;;14.69;100.00;98777.66;4843176;29;20101;-85
2023/08/31 00:53:17;;;;;;;11.73;9.13;;;;;;;14.69;100.00;98769.78;4842915;29;20034;-85
2023/08/31 00:55:45;;;;;;;10.75;9.45;;;;;;;14.58;100.00;98753.22;4843294;29;20029;-85
2023/08/31 00:58:11;;;;;;;10.43;9.35;;;;;;;14.72;100.00;98776.59;4842932;29;20033;-85
2023/08/31 01:00:56;;;;;;;11.85;9.18;;;;;;;14.61;100.00;98759.06;4841748;29;20026;-85
2023/08/31 01:03:53;;;;;;;12.43;9.80;;;;;;;14.67;100.00;98768.25;4842928;29;20029;-85
2023/08/31 01:06:26;;;;;;;11.43;9.30;;;;;;;14.51;100.00;98760.75;4842882;29;20037;-85
2023/08/31 01:09:10;;;;;;;12.27;9.18;;;;;;;14.63;100.00;98780.75;4842964;29;20026;-85
2023/08/31 01:11:47;;;;;;;10.35;8.68;;;;;;;14.65;100.00;98780.63;4861301;29;20041;-85
2023/08/31 01:14:18;;;;;;;11.77;9.45;;;;;;;14.58;100.00;98777.66;4861176;29;20085;-85
2023/08/31 01:16:47;;;;;;;10.13;9.02;;;;;;;14.64;100.00;98784.22;4861239;29;20021;-85
2023/08/31 01:19:39;;;;;;;12.40;9.20;;;;;;;14.48;100.00;98760.94;4859801;29;20033;-85
2023/08/31 01:22:11;;;;;;;10.70;9.15;;;;;;;14.47;100.00;98759.28;4859150;29;20025;-85
2023/08/31 01:24:37;;;;;;;9.75;8.75;;;;;;;14.40;100.00;98763.31;4861559;29;20025;-85
2023/08/31 01:27:03;;;;;;;11.05;9.27;;;;;;;14.53;100.00;98781.56;4861297;29;20120;-85
2023/08/31 01:29:30;;;;;;;11.02;9.18;;;;;;;14.23;100.00;98736.59;4861142;29;20104;-85
2023/08/31 01:31:55;;;;;;;10.43;8.98;;;;;;;14.53;100.00;98794.66;4860912;29;20033;-85
2023/08/31 01:34:34;;;;;;;11.30;9.38;;;;;;;14.36;100.00;98754.00;4859264;29;20025;-85
2023/08/31 01:37:09;;;;;;;10.15;8.90;;;;;;;14.43;100.00;98774.38;4860780;29;20025;-85
2023/08/31 01:39:59;;;;;;;10.13;8.88;;;;;;;14.33;100.00;98755.09;4860949;29;20036;-85
2023/08/31 01:42:27;;;;;;;10.15;9.02;;;;;;;14.40;100.00;98781.63;4860586;29;20072;-85
2023/08/31 01:44:55;;;;;;;10.00;9.00;;;;;;;14.18;100.00;98735.31;4860697;29;20057;-85
2023/08/31 01:47:20;;;;;;;11.25;10.15;;;;;;;13.84;100.00;98690.72;4860642;29;20029;-85
2023/08/31 01:49:46;;;;;;;16.63;11.15;;;;;;;14.26;100.00;98760.91;4860751;29;20155;-85
2023/08/31 01:52:11;;;;;;;14.35;10.85;;;;;;;14.12;100.00;98744.47;4860530;29;20116;-85
2023/08/31 01:54:39;;;;;;;13.32;10.10;;;;;;;14.11;100.00;98758.47;4860532;29;20054;-85
2023/08/31 01:57:06;;;;;;;13.30;10.10;;;;;;;14.10;100.00;98750.75;4860238;29;20029;-85
2023/08/31 01:59:32;;;;;;;14.10;10.32;;;;;;;14.11;100.00;98770.75;4858926;29;20034;-85
2023/08/31 02:01:58;;;;;;;11.27;10.05;;;;;;;14.10;100.00;98772.53;4859374;29;20331;-85
2023/08/31 02:04:23;;;;;;;11.82;9.68;;;;;;;14.05;100.00;98772.06;4860366;29;20371;-85
2023/08/31 02:06:48;;;;;;;13.55;9.85;;;;;;;13.89;100.00;98750.56;4860291;29;20058;-85
2023/08/31 02:09:14;;;;;;;13.45;11.27;;;;;;;14.04;100.00;98777.41;4859994;29;20028;-85
2023/08/31 02:11:40;;;;;;;15.32;11.27;;;;;;;13.80;100.00;98748.66;4859052;29;20021;-85
2023/08/31 02:14:05;;;;;;;12.23;10.18;;;;;;;13.79;100.00;98747.00;4860015;29;20048;-85
2023/08/31 02:16:31;;;;;;;14.35;9.55;;;;;;;13.85;100.00;98773.53;4860218;29;20112;-85
2023/08/31 02:18:57;;;;;;;12.85;10.38;;;;;;;13.70;100.00;98749.34;4860357;29;20085;-85
2023/08/31 02:21:22;;;;;;;11.85;9.52;;;;;;;13.83;100.00;98775.44;4860141;29;20025;-85
2023/08/31 02:23:48;;;;;;;11.48;9.60;;;;;;;13.82;100.00;98771.16;4858974;29;20057;-85
2023/08/31 02:26:13;;;;;;;11.10;9.82;;;;;;;13.75;100.00;98762.06;4859834;29;20169;-85
2023/08/31 02:28:38;;;;;;;11.43;9.48;;;;;;;13.76;100.00;98770.75;4860217;29;20034;-85
2023/08/31 02:31:04;;;;;;;11.18;9.40;;;;;;;13.64;100.00;98751.56;4871204;29;20029;-85
2023/08/31 02:33:29;;;;;;;11.32;9.40;;;;;;;13.46;100.00;98741.50;4896796;29;20024;-85
2023/08/31 02:35:55;;;;;;;10.88;9.48;;;;;;;13.59;100.00;98770.22;4897163;29;20017;-85
2023/08/31 02:38:21;;;;;;;12.88;9.13;;;;;;;13.46;100.00;98756.34;4895689;29;20162;-85
2023/08/31 02:40:47;;;;;;;11.60;9.10;;;;;;;13.64;100.00;98780.34;4897171;29;20025;-85
2023/08/31 02:43:13;;;;;;;10.35;8.82;;;;;;;13.42;100.00;98755.75;4896874;29;20042;-85
2023/08/31 02:45:38;;;;;;;11.68;10.32;;;;;;;13.50;100.00;98781.34;4897131;29;20028;-85
2023/08/31 02:48:06;;;;;;;11.68;9.77;;;;;;;13.30;100.00;98759.25;4896982;29;20085;-85
2023/08/31 02:50:31;;;;;;;14.70;9.75;;;;;;;13.38;100.00;98769.16;4897040;29;20020;-85
2023/08/31 02:52:57;;;;;;;11.68;9.32;;;;;;;13.43;100.00;98786.16;4880109;29;20064;-85
2023/08/31 02:55:22;;;;;;;12.32;10.20;;;;;;;13.43;100.00;98777.50;4896708;29;20100;-85
2023/08/31 02:57:48;;;;;;;11.23;9.05;;;;;;;13.42;100.00;98774.06;4879953;29;20384;-85
2023/08/31 03:00:14;;;;;;;13.73;9.68;;;;;;;13.25;100.00;98756.13;4876763;29;20035;-85
2023/08/31 03:02:40;;;;;;;11.95;9.65;;;;;;;13.32;100.00;98759.97;4878377;29;20108;-85
2023/08/31 03:05:06;;;;;;;12.38;10.32;;;;;;;13.25;100.00;98763.97;4876882;29;20115;-85
2023/08/31 03:07:32;;;;;;;14.98;10.45;;;;;;;13.40;100.00;98788.16;4878250;29;20033;-85
2023/08/31 03:09:57;;;;;;;11.30;9.55;;;;;;;13.37;100.00;98784.00;4878223;29;20060;-85
2023/08/31 03:12:23;;;;;;;11.85;9.65;;;;;;;13.37;100.00;98785.78;4877951;29;20495;-85
2023/08/31 03:14:48;;;;;;;11.80;9.07;;;;;;;13.26;100.00;98775.25;4878027;29;20060;-85
2023/08/31 03:17:13;;;;;;;10.68;9.38;;;;;;;13.35;100.00;98787.66;4877830;29;20397;-85
2023/08/31 03:19:39;;;;;;;11.60;9.90;;;;;;;13.16;100.00;98764.59;4878259;29;20590;-85
2023/08/31 03:22:04;;;;;;;12.32;10.75;;;;;;;13.20;100.00;98771.28;4878116;29;20024;-85
2023/08/31 03:24:31;;;;;;;12.20;10.18;;;;;;;13.28;100.00;98784.69;4877881;29;20021;-85
2023/08/31 03:26:56;;;;;;;10.52;9.32;;;;;;;13.39;100.00;98799.59;4876702;29;20025;-85
2023/08/31 03:29:21;;;;;;;12.75;11.05;;;;;;;13.19;100.00;98780.91;4877758;29;20085;-85
2023/08/31 03:31:47;;;;;;;12.38;10.65;;;;;;;13.17;100.00;98777.56;4878088;29;20027;-85
2023/08/31 03:34:12;;;;;;;13.73;9.82;;;;;;;13.26;100.00;98791.78;4876641;29;20056;-85
2023/08/31 03:36:37;;;;;;;14.25;11.93;;;;;;;13.35;100.00;98792.91;4878003;29;20017;-85
2023/08/31 03:39:03;;;;;;;15.48;10.57;;;;;;;13.16;100.00;98764.59;4878334;29;20033;-85
2023/08/31 03:41:28;;;;;;;18.05;12.75;;;;;;;13.30;100.00;98788.00;4877635;29;20648;-85
2023/08/31 03:43:54;;;;;;;14.07;11.15;;;;;;;13.26;100.00;98776.09;4878831;29;20037;-85
2023/08/31 03:46:19;;;;;;;14.52;11.50;;;;;;;13.25;100.00;98769.19;4880047;29;20029;-85
2023/08/31 03:48:44;;;;;;;14.65;11.13;;;;;;;13.21;100.00;98765.09;4881758;29;20053;-85
2023/08/31 03:51:10;;;;;;;13.63;11.50;;;;;;;13.41;100.00;98798.53;4881247;29;20343;-85
2023/08/31 03:53:35;;;;;;;12.57;11.13;;;;;;;13.44;100.00;98798.34;4881315;29;20028;-85
2023/08/31 03:56:00;;;;;;;13.30;11.75;;;;;;;13.30;100.00;98766.25;4881186;29;20024;-85
2023/08/31 03:58:26;;;;;;;18.38;14.35;;;;;;;13.44;100.00;98784.38;4880890;29;20425;-85
2023/08/31 04:00:51;;;;;;;15.68;12.80;;;;;;;13.35;100.00;98782.44;4881665;29;20021;-85
2023/08/31 04:03:16;;;;;;;14.00;11.55;;;;;;;13.36;100.00;98778.91;4879751;29;20044;-85
2023/08/31 04:05:42;;;;;;;14.88;13.27;;;;;;;13.35;100.00;98777.22;4881188;29;20036;-85
2023/08/31 04:08:07;;;;;;;17.02;12.65;;;;;;;13.54;100.00;98801.09;4881330;29;20076;-85
2023/08/31 04:10:32;;;;;;;16.75;13.80;;;;;;;13.37;100.00;98775.34;4880887;29;20132;-85
2023/08/31 04:24:57;;;;;;;11.52;10.38;;;;;;;13.27;100.00;98715.00;5129830;27;20649;-81
2023/08/31 04:27:22;;;;;;;12.63;10.63;;;;;;;13.71;100.00;98798.09;5129616;27;20066;-81
2023/08/31 04:29:48;;;;;;;13.05;10.43;;;;;;;13.39;100.00;98742.03;5130053;28;20027;-82
2023/08/31 04:32:13;;;;;;;12.40;11.10;;;;;;;13.60;100.00;98784.13;5129279;27;20032;-82
2023/08/31 04:34:38;;;;;;;12.95;10.55;;;;;;;13.13;100.00;98702.06;5111281;28;20110;-82
2023/08/31 04:37:04;;;;;;;12.77;10.68;;;;;;;13.61;100.00;98784.03;5129729;28;20106;-83
2023/08/31 04:39:29;;;;;;;13.30;11.82;;;;;;;13.68;100.00;98797.47;5110998;28;20085;-82
2023/08/31 04:41:54;;;;;;;12.23;10.25;;;;;;;13.73;100.00;98792.75;5129633;28;20089;-82
2023/08/31 04:44:20;;;;;;;13.40;11.13;;;;;;;13.68;100.00;98785.22;5129270;28;20027;-82
2023/08/31 04:46:45;;;;;;;14.38;11.38;;;;;;;13.63;100.00;98773.44;5129095;27;20208;-82
2023/08/31 04:49:11;;;;;;;13.07;11.73;;;;;;;13.76;100.00;98784.69;5129193;28;20024;-82
2023/08/31 04:51:41;;;;;;;15.23;12.57;;;;;;;13.96;100.00;98804.16;5133193;28;20080;-82
2023/08/31 04:54:07;;;;;;;16.13;12.02;;;;;;;13.82;100.00;98779.00;5135150;28;20070;-82
2023/08/31 04:56:33;;;;;;;14.02;12.45;;;;;;;14.10;100.00;98818.84;5133294;28;20024;-82
2023/08/31 04:58:59;;;;;;;14.77;11.65;;;;;;;13.73;100.00;98738.63;5129318;28;20160;-83
2023/08/31 05:01:25;;;;;;;14.10;12.05;;;;;;;14.17;100.00;98804.34;5129270;28;20031;-82
2023/08/31 05:03:50;;;;;;;12.50;11.15;;;;;;;14.40;100.00;98834.03;5129626;28;20076;-82
2023/08/31 05:06:15;;;;;;;12.32;11.10;;;;;;;14.39;100.00;98827.97;5110813;28;20027;-83
2023/08/31 05:08:41;;;;;;;13.38;11.52;;;;;;;14.51;100.00;98834.09;5110623;28;20100;-82
2023/08/31 05:11:06;;;;;;;15.00;11.82;;;;;;;14.65;100.00;98846.16;5129112;28;20056;-83
2023/08/31 05:13:32;;;;;;;15.15;12.85;;;;;;;14.40;100.00;98795.56;5128709;27;20361;-82
2023/08/31 05:15:57;;;;;;;12.60;11.05;;;;;;;14.46;100.00;98791.66;5128823;28;20411;-82
2023/08/31 05:18:23;;;;;;;18.35;10.90;;;;;;;14.67;100.00;98812.81;5128693;27;20028;-82
2023/08/31 05:20:51;;;;;;;14.82;12.40;;;;;;;14.70;100.00;98788.97;5128630;27;20046;-82
2023/08/31 05:23:16;;;;;;;13.57;11.13;;;;;;;14.84;100.00;98787.91;5128561;27;20043;-82
2023/08/31 05:25:45;;;;;;;11.85;10.65;;;;;;;15.32;100.00;98840.91;5116143;28;20027;-83
2023/08/31 05:28:10;;;;;;;15.30;11.30;;;;;;;15.16;100.00;98780.97;5115105;28;20102;-83
2023/08/31 05:30:35;;;;;;;10.90;9.75;;;;;;;15.23;100.00;98805.75;5114595;28;20131;-82
2023/08/31 05:33:01;;;;;;;13.00;9.98;;;;;;;15.34;100.00;98799.66;5115297;27;20024;-82
2023/08/31 05:35:27;;;;;;;11.60;9.88;;;;;;;15.46;100.00;98811.81;5114677;28;20054;-82
2023/08/31 05:37:52;;;;;;;11.48;9.48;;;;;;;15.51;100.00;98818.47;5114998;28;20073;-82
2023/08/31 05:40:18;;;;;;;15.23;10.75;;;;;;;15.70;100.00;98843.13;5114672;28;20036;-82
2023/08/31 05:42:43;;;;;;;10.38;9.32;;;;;;;15.58;100.00;98838.84;5114631;28;20034;-82
2023/08/31 05:45:09;;;;;;;10.32;9.32;;;;;;;15.50;100.00;98822.88;5113215;28;20464;-82
2023/08/31 05:47:34;;;;;;;10.60;9.30;;;;;;;15.43;100.00;98812.03;5114685;28;20058;-82
2023/08/31 05:50:00;;;;;;;11.20;9.98;;;;;;;15.10;100.00;98763.09;5114744;28;20024;-82
2023/08/31 05:52:26;;;;;;;12.48;9.70;;;;;;;15.40;100.00;98799.16;5113187;28;20124;-82
2023/08/31 05:54:52;;;;;;;12.50;11.20;;;;;;;15.81;100.00;98859.84;5113344;28;20035;-82
2023/08/31 05:57:22;;;;;;;11.25;10.18;;;;;;;15.60;100.00;98823.00;5113007;28;20028;-82
2023/08/31 05:59:48;;;;;;;10.60;9.27;;;;;;;15.60;100.00;98808.06;5114370;28;20040;-82
2023/08/31 06:02:14;;;;;;;11.02;9.77;;;;;;;15.83;100.00;98850.03;5114356;28;20024;-82
2023/08/31 06:04:39;;;;;;;13.73;9.65;;;;;;;15.91;100.00;98869.47;5114408;27;20027;-82
2023/08/31 06:07:05;;;;;;;12.50;11.20;;;;;;;15.66;100.00;98841.72;5114446;28;20533;-82
2023/08/31 06:09:30;;;;;;;11.32;10.05;;;;;;;15.80;100.00;98859.00;5112757;28;20605;-82
2023/08/31 06:11:55;;;;;;;13.18;10.23;;;;;;;15.70;100.00;98839.69;5114470;28;20498;-82
2023/08/31 06:14:21;;;;;;;12.13;10.20;;;;;;;15.68;100.00;98844.25;5112360;28;20043;-82
2023/08/31 06:16:46;;;;;;;12.85;10.60;;;;;;;15.92;100.00;98871.13;5114101;28;20031;-83
2023/08/31 06:19:15;;;;;;;12.05;10.82;;;;;;;15.86;100.00;98844.53;5114231;28;20600;-82
2023/08/31 06:21:41;;;;;;;12.80;11.50;;;;;;;16.04;100.00;98842.19;5114285;28;20023;-82
2023/08/31 06:24:09;;;;;;;12.40;11.18;;;;;;;16.26;100.00;98830.75;5113851;28;20055;-82
2023/08/31 06:26:35;;;;;;;11.90;10.70;;;;;;;17.02;100.00;98890.06;5113468;28;20118;-82
2023/08/31 06:29:00;;;;;;;11.13;9.93;;;;;;;17.28;100.00;98879.13;5113798;28;20107;-82
2023/08/31 06:31:26;;;;;;;13.32;11.32;;;;;;;17.59;100.00;98874.63;5114014;28;20391;-82
2023/08/31 06:33:51;;;;;;;12.68;11.48;;;;;;;17.65;100.00;98845.09;5113873;28;20024;-83
2023/08/31 06:36:17;;;;;;;11.68;10.27;;;;;;;18.16;100.00;98891.50;5112507;28;20121;-83
2023/08/31 06:38:42;;;;;;;13.63;10.57;;;;;;;18.44;100.00;98890.69;5113356;28;20051;-82
2023/08/31 06:41:08;;;;;;;11.10;9.98;;;;;;;18.73;100.00;98895.13;5113902;28;20107;-82
2023/08/31 06:43:34;;;;;;;9.88;8.98;;;;;;;19.03;100.00;98901.16;5113310;28;20035;-82
2023/08/31 06:46:00;;;;;;;10.75;9.65;;;;;;;19.42;100.00;98915.03;5113611;28;20034;-83
2023/08/31 06:48:26;;;;;;;10.73;9.70;;;;;;;19.62;100.00;98911.38;5113630;28;20379;-82
2023/08/31 06:50:52;;;;;;;8.90;8.00;;;;;;;19.45;100.00;98878.63;5112354;28;20024;-83
2023/08/31 06:53:17;;;;;;;9.95;9.05;;;;;;;19.67;100.00;98892.44;5111961;28;20035;-83
2023/08/31 06:55:43;;;;;;;10.10;8.98;;;;;;;20.07;100.00;98912.38;5113241;28;20024;-82
2023/08/31 06:58:08;;;;;;;9.75;8.68;;;;;;;20.37;100.00;98927.03;5113127;28;20110;-82
2023/08/31 07:00:33;;;;;;;12.50;9.98;;;;;;;20.49;99.00;98896.75;5112801;28;20026;-82
2023/08/31 07:03:00;;;;;;;10.00;9.00;;;;;;;21.10;96.77;98940.84;5113280;28;20061;-82
2023/08/31 07:05:27;;;;;;;9.73;8.82;;;;;;;21.05;95.31;98894.66;5111518;28;20027;-82
2023/08/31 07:07:58;;;;;;;9.68;8.15;;;;;;;21.48;94.09;98941.41;5093735;28;20191;-82
2023/08/31 07:10:23;;;;;;;8.70;7.90;;;;;;;21.77;93.62;98940.22;5112644;28;20111;-83
2023/08/31 07:12:49;;;;;;;8.13;7.32;;;;;;;22.07;92.35;98936.16;5112307;28;20102;-83
2023/08/31 07:15:16;;;;;;;8.77;7.88;;;;;;;22.24;90.43;98911.38;5113060;28;20026;-83
2023/08/31 07:17:46;;;;;;;10.43;7.68;;;;;;;22.66;87.70;98935.09;5111407;28;20027;-83
2023/08/31 07:20:12;;;;;;;7.70;6.50;;;;;;;22.69;86.95;98933.94;5112792;28;20020;-83
2023/08/31 07:22:38;;;;;;;7.00;6.30;;;;;;;22.64;86.52;98925.66;5112524;28;20177;-83
2023/08/31 07:25:05;;;;;;;8.15;6.55;;;;;;;22.77;86.40;98906.56;5112641;28;20118;-83
2023/08/31 07:27:31;;;;;;;5.95;5.45;;;;;;;23.26;85.24;98936.56;5112646;28;20027;-83
2023/08/31 07:29:57;;;;;;;6.85;6.25;;;;;;;23.54;82.94;98910.38;5112697;28;20077;-83
2023/08/31 07:32:22;;;;;;;6.47;5.88;;;;;;;24.39;80.82;98934.41;5112465;28;20451;-83
2023/08/31 07:34:47;;;;;;;5.82;5.30;;;;;;;25.02;78.72;98907.56;5112491;28;20111;-83
2023/08/31 07:37:13;;;;;;;6.13;5.50;;;;;;;26.23;75.67;98947.13;5112588;28;20024;-83
2023/08/31 07:39:38;;;;;;;6.00;5.32;;;;;;;27.04;73.68;98942.34;5112156;28;20116;-83
2023/08/31 07:42:05;;;;;;;5.38;4.90;;;;;;;27.93;71.38;98959.56;5112702;28;20023;-83
2023/08/31 07:44:31;;;;;;;5.78;4.75;;;;;;;28.40;69.34;98947.16;5112103;28;20486;-83
2023/08/31 07:46:56;;;;;;;5.05;4.55;;;;;;;28.29;68.19;98968.13;5110620;28;20032;-83
2023/08/31 07:49:21;;;;;;;5.10;3.75;;;;;;;27.26;68.31;98943.16;5112143;28;20023;-83
2023/08/31 07:51:47;;;;;;;4.22;3.92;;;;;;;26.25;70.19;98952.28;5112302;28;20467;-83
2023/08/31 07:54:22;;;;;;;6.03;4.35;;;;;;;25.32;71.98;98973.22;5112150;28;20357;-83
2023/08/31 07:56:48;;;;;;;4.78;4.38;;;;;;;24.37;74.40;98956.88;5112263;28;20027;-83
2023/08/31 07:59:13;;;;;;;4.30;3.90;;;;;;;23.80;76.58;98973.13;5112415;28;20034;-83
2023/08/31 08:01:38;;;;;;;4.93;4.05;;;;;;;23.11;77.44;98952.38;5112145;28;20486;-83
2023/08/31 08:04:04;;;;;;;4.65;4.25;;;;;;;22.64;78.63;98939.75;5097207;28;20024;-83
2023/08/31 08:06:29;;;;;;;4.10;3.80;;;;;;;22.17;79.83;98943.03;5101515;28;20030;-83
2023/08/31 08:08:55;;;;;;;4.82;4.43;;;;;;;21.90;80.44;98985.66;5100558;28;20031;-83
2023/08/31 08:11:22;;;;;;;5.45;4.28;;;;;;;21.46;82.70;98988.44;5098838;28;20368;-83
2023/08/31 08:13:47;;;;;;;4.82;4.43;;;;;;;21.04;84.75;98961.84;5094072;28;20389;-83
2023/08/31 08:16:14;;;;;;;4.88;4.15;;;;;;;20.92;86.30;98985.91;5100325;28;20031;-83
2023/08/31 08:18:39;;;;;;;5.85;4.35;;;;;;;20.81;86.66;98990.59;5099276;28;20023;-83
2023/08/31 08:21:05;;;;;;;5.25;4.50;;;;;;;20.73;86.10;98993.16;5101514;28;20399;-83
2023/08/31 08:23:30;;;;;;;4.10;3.80;;;;;;;20.29;84.86;98954.22;5105691;28;20048;-83
2023/08/31 08:25:56;;;;;;;4.00;3.70;;;;;;;20.48;85.86;99007.94;5111968;28;20031;-83
2023/08/31 08:28:21;;;;;;;4.40;4.00;;;;;;;20.36;86.65;98976.44;5111767;28;20023;-83
2023/08/31 08:30:46;;;;;;;4.00;3.70;;;;;;;20.71;86.78;99001.28;5111698;28;20020;-83
2023/08/31 08:33:12;;;;;;;4.35;3.55;;;;;;;20.77;86.74;99005.94;5111738;28;20036;-83
2023/08/31 08:35:38;;;;;;;3.50;3.20;;;;;;;20.41;85.92;98954.84;5111585;28;20110;-83
2023/08/31 08:38:03;;;;;;;3.65;3.30;;;;;;;20.67;86.50;98995.44;5111727;28;20027;-83
2023/08/31 08:40:31;;;;;;;3.90;3.40;;;;;;;20.31;86.00;98954.91;5111622;28;20045;-83
2023/08/31 08:43:00;;;;;;;3.53;3.25;;;;;;;20.37;87.07;98993.16;5100151;28;20050;-83
2023/08/31 08:45:30;;;;;;;3.67;3.38;;;;;;;20.00;87.57;98975.56;5091076;28;20024;-83
2023/08/31 08:47:57;;;;;;;3.55;3.20;;;;;;;19.64;89.03;98979.94;5091271;28;20046;-82
2023/08/31 08:50:24;;;;;;;4.07;3.58;;;;;;;19.49;90.49;99019.13;5090828;28;20027;-83
2023/08/31 08:52:50;;;;;;;3.50;3.20;;;;;;;18.92;92.60;98984.81;5099441;28;20032;-82
2023/08/31 08:55:16;;;;;;;3.13;2.83;;;;;;;18.86;94.14;99019.66;5101897;28;20024;-82
2023/08/31 08:57:41;;;;;;;3.40;3.10;;;;;;;18.60;93.87;99016.72;5096791;28;20036;-82
2023/08/31 09:00:07;;;;;;;3.88;3.05;;;;;;;18.50;95.63;99025.56;5092906;28;20051;-82
2023/08/31 09:02:32;;;;;;;3.38;3.10;;;;;;;18.28;95.69;99037.19;5103113;27;20492;-82
2023/08/31 09:04:58;;;;;;;3.08;2.85;;;;;;;17.97;96.60;98996.91;5094761;28;20020;-82
2023/08/31 09:07:26;;;;;;;3.83;3.50;;;;;;;18.14;97.02;99044.50;5095006;28;20032;-82
2023/08/31 09:09:53;;;;;;;3.55;3.17;;;;;;;17.93;98.02;99023.50;5093706;28;20032;-82
2023/08/31 09:12:20;;;;;;;3.85;2.97;;;;;;;17.79;96.88;99018.59;5101776;28;20023;-83
2023/08/31 09:14:58;;;;;;;4.40;3.00;;;;;;;18.03;97.39;99075.41;5094052;28;20515;-82
2023/08/31 09:17:27;;;;;;;5.25;3.40;;;;;;;18.00;97.33;99071.25;5115941;27;20038;-83
2023/08/31 09:20:05;;;;;;;4.03;3.15;;;;;;;17.91;98.36;99043.06;5105932;27;20492;-83
2023/08/31 09:22:32;;;;;;;5.35;3.35;;;;;;;17.55;98.64;98987.28;5102596;28;20043;-84
2023/08/31 09:24:58;;;;;;;5.30;2.75;;;;;;;17.83;98.33;99040.25;5094685;28;20020;-83
2023/08/31 09:27:24;;;;;;;3.38;3.08;;;;;;;17.67;98.12;99023.09;5114493;27;20473;-82
2023/08/31 09:29:50;;;;;;;4.72;3.33;;;;;;;17.74;98.84;99055.06;5107485;27;20028;-83
2023/08/31 09:32:18;;;;;;;3.42;3.13;;;;;;;17.56;99.19;99046.03;5101092;28;20028;-83
2023/08/31 09:34:45;;;;;;;7.10;3.15;;;;;;;17.71;99.91;99089.50;5094095;28;20089;-82
2023/08/31 09:37:11;;;;;;;4.32;3.30;;;;;;;17.80;100.00;99127.44;5109591;27;20083;-83
2023/08/31 09:39:38;;;;;;;3.83;3.10;;;;;;;17.69;100.00;99121.22;5112087;27;20032;-83
2023/08/31 09:42:04;;;;;;;4.55;3.03;;;;;;;17.30;100.00;99071.94;5100881;28;20034;-83
2023/08/31 09:44:29;;;;;;;5.45;3.22;;;;;;;17.54;100.00;99125.16;5095527;28;20024;-83
2023/08/31 09:46:55;;;;;;;5.20;3.28;;;;;;;17.12;100.00;99071.69;5097413;28;20123;-83
2023/08/31 09:49:22;;;;;;;3.72;3.25;;;;;;;17.15;100.00;99095.06;5104622;28;20036;-83
2023/08/31 09:51:49;;;;;;;3.50;3.15;;;;;;;17.15;100.00;99093.31;5097699;27;20083;-83
2023/08/31 09:54:21;;;;;;;3.88;3.45;;;;;;;17.16;100.00;99070.47;5098431;28;20089;-83
2023/08/31 09:56:48;;;;;;;4.18;3.72;;;;;;;17.40;100.00;99089.47;5116624;27;20368;-83
2023/08/31 09:59:15;;;;;;;4.47;3.53;;;;;;;17.61;100.00;99096.50;5119342;27;20107;-82
2023/08/31 10:01:42;;;;;;;3.67;3.30;;;;;;;17.80;100.00;99107.19;5094047;28;20035;-82
2023/08/31 10:04:08;;;;;;;4.20;3.80;;;;;;;17.65;100.00;99069.78;5094445;28;20028;-82
2023/08/31 10:06:40;;;;;;;4.00;3.63;;;;;;;17.60;100.00;99056.19;5093638;28;20028;-82
2023/08/31 10:09:09;;;;;;;3.90;3.60;;;;;;;18.13;100.00;99115.81;5092585;28;20024;-82
2023/08/31 10:11:36;;;;;;;4.13;3.13;;;;;;;18.24;100.00;99106.97;5093483;28;20032;-82
2023/08/31 10:14:04;;;;;;;3.72;3.30;;;;;;;17.95;100.00;99068.19;5093531;28;20381;-82
2023/08/31 10:16:30;;;;;;;3.30;2.97;;;;;;;18.02;100.00;99073.72;5093709;28;20060;-82
2023/08/31 10:18:56;;;;;;;4.32;3.72;;;;;;;18.31;100.00;99103.66;5092540;28;20131;-82
2023/08/31 10:21:22;;;;;;;4.55;3.38;;;;;;;18.30;100.00;99093.25;5093732;28;20035;-83
2023/08/31 10:23:49;;;;;;;3.90;3.50;;;;;;;18.50;100.00;99100.25;5093418;28;20048;-83
2023/08/31 10:26:28;;;;;;;5.18;3.80;;;;;;;18.35;100.00;99062.06;5093405;28;20028;-82
2023/08/31 10:28:54;;;;;;;3.75;3.15;;;;;;;18.57;100.00;99082.06;5093508;28;20024;-82
2023/08/31 10:31:22;;;;;;;5.40;3.40;;;;;;;18.53;100.00;99075.41;5093545;28;20396;-82
2023/08/31 10:33:59;;;;;;;3.30;2.70;;;;;;;18.70;100.00;99103.78;5092537;28;20035;-82
2023/08/31 10:36:44;;;;;;;3.00;2.75;;;;;;;18.66;100.00;99094.44;5089001;28;20028;-82
2023/08/31 10:39:13;;;;;;;4.03;3.65;;;;;;;18.91;100.00;99136.16;5094046;28;20119;-82
2023/08/31 10:41:39;;;;;;;3.05;2.75;;;;;;;18.63;100.00;99081.56;5092960;28;20024;-83
2023/08/31 10:44:20;;;;;;;3.30;3.00;;;;;;;18.83;100.00;99093.81;5101057;28;20027;-83
2023/08/31 10:46:46;;;;;;;3.00;2.80;;;;;;;18.94;100.00;99104.22;5104351;28;20039;-82
2023/08/31 10:49:11;;;;;;;3.45;3.13;;;;;;;19.17;100.00;99125.06;5094817;28;20047;-83
2023/08/31 10:51:39;;;;;;;3.75;2.90;;;;;;;19.22;100.00;99122.03;5091473;28;20071;-82
2023/08/31 10:54:10;;;;;;;5.70;3.70;;;;;;;19.15;100.00;99103.28;5100167;27;20031;-82
2023/08/31 10:57:00;;;;;;;4.15;3.42;;;;;;;19.29;100.00;99131.06;5093343;28;20478;-82
2023/08/31 10:59:41;;;;;;;3.88;3.58;;;;;;;19.28;100.00;99111.75;5094730;28;20032;-82
2023/08/31 11:02:07;;;;;;;6.07;3.92;;;;;;;19.38;100.00;99114.34;5091699;28;20023;-82
2023/08/31 11:04:58;;;;;;;3.90;3.60;;;;;;;19.40;100.00;99109.78;5102797;27;20091;-82
2023/08/31 11:07:26;;;;;;;4.32;3.90;;;;;;;19.48;100.00;99107.28;5093009;28;20102;-82
2023/08/31 11:09:51;;;;;;;4.90;3.42;;;;;;;19.72;100.00;99100.72;5094341;28;20036;-83
2023/08/31 11:12:17;;;;;;;5.93;3.60;;;;;;;19.65;100.00;99068.75;5092264;28;20500;-83
2023/08/31 11:14:42;;;;;;;4.32;3.92;;;;;;;19.93;99.85;99083.69;5102470;27;20031;-82
2023/08/31 11:17:08;;;;;;;3.92;3.50;;;;;;;20.18;98.47;99111.28;5092533;28;20054;-82
2023/08/31 11:19:36;;;;;;;4.35;3.95;;;;;;;20.07;96.78;99086.84;5094291;27;20460;-82
2023/08/31 11:22:02;;;;;;;3.67;3.30;;;;;;;20.28;97.68;99116.53;5091719;28;20021;-83
2023/08/31 11:24:32;;;;;;;3.88;3.45;;;;;;;20.40;96.64;99123.28;5100845;27;20058;-83
2023/08/31 11:26:57;;;;;;;4.18;3.78;;;;;;;20.12;95.93;99076.66;5091432;28;20031;-83
2023/08/31 11:29:23;;;;;;;5.03;4.00;;;;;;;20.09;96.59;99072.47;5094372;28;20388;-82
2023/08/31 11:31:48;;;;;;;6.35;4.43;;;;;;;20.02;96.02;99065.31;5092012;28;20540;-82